sensor_id;sensor_type;location;lat;lon;timestamp;temperature;humidity
34099;DHT22;20374;49.474;10.944;2023-02-14T00:00:18;2.70;99.90
34099;DHT22;20374;49.474;10.944;2023-02-14T00:02:44;2.60;99.90
34099;DHT22;20374;49.474;10.944;2023-02-14T00:05:10;2.60;99.90
34099;DHT22;20374;49.474;10.944;2023-02-14T00:07:36;2.60;99.90
34099;DHT22;20374;49.474;10.944;2023-02-14T00:10:02;2.60;99.90
34099;DHT22;20374;49.474;10.944;2023-02-14T00:12:28;2.90;99.90
34099;DHT22;20374;49.474;10.944;2023-02-14T00:14:54;2.60;99.90
34099;DHT22;20374;49.474;10.944;2023-02-14T00:17:38;2.50;99.90
34099;DHT22;20374;49.474;10.944;2023-02-14T00:20:05;2.50;99.90
34099;DHT22;20374;49.474;10.944;2023-02-14T00:22:31;2.60;99.90
34099;DHT22;20374;49.474;10.944;2023-02-14T00:24:57;2.60;99.90
34099;DHT22;20374;49.474;10.944;2023-02-14T00:27:23;2.60;99.90
34099;DHT22;20374;49.474;10.944;2023-02-14T00:29:49;2.50;99.90
34099;DHT22;20374;49.474;10.944;2023-02-14T00:32:15;2.50;99.90
34099;DHT22;20374;49.474;10.944;2023-02-14T00:34:41;2.40;99.90
34099;DHT22;20374;49.474;10.944;2023-02-14T00:37:09;2.40;99.90
34099;DHT22;20374;49.474;10.944;2023-02-14T00:39:35;2.40;99.90
34099;DHT22;20374;49.474;10.944;2023-02-14T00:42:04;2.40;99.90
34099;DHT22;20374;49.474;10.944;2023-02-14T00:44:30;2.40;99.90
34099;DHT22;20374;49.474;10.944;2023-02-14T00:46:56;2.40;99.90
34099;DHT22;20374;49.474;10.944;2023-02-14T00:49:22;2.40;99.90
34099;DHT22;20374;49.474;10.944;2023-02-14T00:51:48;2.40;99.90
34099;DHT22;20374;49.474;10.944;2023-02-14T00:54:14;2.40;99.90
34099;DHT22;20374;49.474;10.944;2023-02-14T00:56:40;2.40;99.90
34099;DHT22;20374;49.474;10.944;2023-02-14T00:59:08;2.40;99.90
34099;DHT22;20374;49.474;10.944;2023-02-14T01:01:34;2.40;99.90
34099;DHT22;20374;49.474;10.944;2023-02-14T01:04:02;2.40;99.90
34099;DHT22;20374;49.474;10.944;2023-02-14T01:06:28;2.40;99.90
34099;DHT22;20374;49.474;10.944;2023-02-14T01:08:55;2.40;99.90
34099;DHT22;20374;49.474;10.944;2023-02-14T01:11:22;2.30;99.90
34099;DHT22;20374;49.474;10.944;2023-02-14T01:13:54;2.30;99.90
34099;DHT22;20374;49.474;10.944;2023-02-14T01:16:23;2.30;99.90
34099;DHT22;20374;49.474;10.944;2023-02-14T01:18:50;2.30;99.90
34099;DHT22;20374;49.474;10.944;2023-02-14T01:23:49;2.30;99.90
34099;DHT22;20374;49.474;10.944;2023-02-14T01:26:18;2.30;99.90
34099;DHT22;20374;49.474;10.944;2023-02-14T01:28:45;2.30;99.90
34099;DHT22;20374;49.474;10.944;2023-02-14T01:31:13;2.40;99.90
34099;DHT22;20374;49.474;10.944;2023-02-14T01:33:41;2.30;99.90
34099;DHT22;20374;49.474;10.944;2023-02-14T01:36:18;2.30;99.90
34099;DHT22;20374;49.474;10.944;2023-02-14T01:38:44;2.30;99.90
34099;DHT22;20374;49.474;10.944;2023-02-14T01:41:10;2.30;99.90
34099;DHT22;20374;49.474;10.944;2023-02-14T01:49:42;2.20;99.90
34099;DHT22;20374;49.474;10.944;2023-02-14T01:52:11;2.10;99.90
34099;DHT22;20374;49.474;10.944;2023-02-14T01:54:47;2.30;99.90
34099;DHT22;20374;49.474;10.944;2023-02-14T01:57:15;2.50;99.90
34099;DHT22;20374;49.474;10.944;2023-02-14T01:59:53;2.30;99.90
34099;DHT22;20374;49.474;10.944;2023-02-14T02:02:20;2.30;99.90
34099;DHT22;20374;49.474;10.944;2023-02-14T02:04:51;2.30;99.90
34099;DHT22;20374;49.474;10.944;2023-02-14T02:07:22;2.30;99.90
34099;DHT22;20374;49.474;10.944;2023-02-14T02:09:54;2.30;99.90
34099;DHT22;20374;49.474;10.944;2023-02-14T02:12:22;2.20;99.90
34099;DHT22;20374;49.474;10.944;2023-02-14T02:14:50;2.20;99.90
34099;DHT22;20374;49.474;10.944;2023-02-14T02:34:06;2.10;99.90
34099;DHT22;20374;49.474;10.944;2023-02-14T02:51:19;2.00;99.90
34099;DHT22;20374;49.474;10.944;2023-02-14T02:54:17;2.00;99.90
34099;DHT22;20374;49.474;10.944;2023-02-14T02:56:49;2.00;99.90
34099;DHT22;20374;49.474;10.944;2023-02-14T02:59:30;2.00;99.90
34099;DHT22;20374;49.474;10.944;2023-02-14T03:02:17;2.00;99.90
34099;DHT22;20374;49.474;10.944;2023-02-14T03:04:49;2.10;99.90
34099;DHT22;20374;49.474;10.944;2023-02-14T03:07:35;2.00;99.90
34099;DHT22;20374;49.474;10.944;2023-02-14T03:10:26;2.00;99.90
34099;DHT22;20374;49.474;10.944;2023-02-14T03:15:38;2.00;99.90
34099;DHT22;20374;49.474;10.944;2023-02-14T03:26:16;1.90;99.90
34099;DHT22;20374;49.474;10.944;2023-02-14T03:36:20;1.80;99.90
34099;DHT22;20374;49.474;10.944;2023-02-14T03:39:07;1.90;99.90
34099;DHT22;20374;49.474;10.944;2023-02-14T03:41:56;1.80;99.90
34099;DHT22;20374;49.474;10.944;2023-02-14T03:44:26;1.90;99.90
34099;DHT22;20374;49.474;10.944;2023-02-14T03:47:10;1.80;99.90
34099;DHT22;20374;49.474;10.944;2023-02-14T03:49:40;1.80;99.90
34099;DHT22;20374;49.474;10.944;2023-02-14T03:52:09;1.80;99.90
34099;DHT22;20374;49.474;10.944;2023-02-14T03:54:36;1.80;99.90
34099;DHT22;20374;49.474;10.944;2023-02-14T03:57:31;1.80;99.90
34099;DHT22;20374;49.474;10.944;2023-02-14T03:59:59;1.80;99.90
34099;DHT22;20374;49.474;10.944;2023-02-14T04:05:03;1.80;99.90
34099;DHT22;20374;49.474;10.944;2023-02-14T04:07:30;1.80;99.90
34099;DHT22;20374;49.474;10.944;2023-02-14T04:09:56;1.70;99.90
34099;DHT22;20374;49.474;10.944;2023-02-14T04:12:22;1.80;99.90
34099;DHT22;20374;49.474;10.944;2023-02-14T04:14:48;1.80;99.90
34099;DHT22;20374;49.474;10.944;2023-02-14T04:17:14;1.70;99.90
34099;DHT22;20374;49.474;10.944;2023-02-14T04:19:58;1.80;99.90
34099;DHT22;20374;49.474;10.944;2023-02-14T04:22:24;1.80;99.90
34099;DHT22;20374;49.474;10.944;2023-02-14T04:24:50;1.80;99.90
34099;DHT22;20374;49.474;10.944;2023-02-14T04:27:16;1.70;99.90
34099;DHT22;20374;49.474;10.944;2023-02-14T04:29:47;1.80;99.90
34099;DHT22;20374;49.474;10.944;2023-02-14T04:32:17;1.70;99.90
34099;DHT22;20374;49.474;10.944;2023-02-14T04:34:44;1.70;99.90
34099;DHT22;20374;49.474;10.944;2023-02-14T04:37:10;1.60;99.90
34099;DHT22;20374;49.474;10.944;2023-02-14T04:39:37;1.60;99.90
34099;DHT22;20374;49.474;10.944;2023-02-14T04:42:03;1.50;99.90
34099;DHT22;20374;49.474;10.944;2023-02-14T04:44:29;1.50;99.90
34099;DHT22;20374;49.474;10.944;2023-02-14T04:46:55;1.50;99.90
34099;DHT22;20374;49.474;10.944;2023-02-14T04:49:21;1.50;99.90
34099;DHT22;20374;49.474;10.944;2023-02-14T04:51:47;1.60;99.90
34099;DHT22;20374;49.474;10.944;2023-02-14T04:54:13;1.50;99.90
34099;DHT22;20374;49.474;10.944;2023-02-14T04:56:39;1.50;99.90
34099;DHT22;20374;49.474;10.944;2023-02-14T04:59:05;1.50;99.90
34099;DHT22;20374;49.474;10.944;2023-02-14T05:01:31;1.50;99.90
34099;DHT22;20374;49.474;10.944;2023-02-14T05:03:57;1.50;99.90
34099;DHT22;20374;49.474;10.944;2023-02-14T05:06:23;1.50;99.90
34099;DHT22;20374;49.474;10.944;2023-02-14T05:08:49;1.40;99.90
34099;DHT22;20374;49.474;10.944;2023-02-14T05:11:15;1.40;99.90
34099;DHT22;20374;49.474;10.944;2023-02-14T05:13:40;1.40;99.90
34099;DHT22;20374;49.474;10.944;2023-02-14T05:16:06;1.40;99.90
34099;DHT22;20374;49.474;10.944;2023-02-14T05:18:32;1.40;99.90
34099;DHT22;20374;49.474;10.944;2023-02-14T05:20:58;1.40;99.90
34099;DHT22;20374;49.474;10.944;2023-02-14T05:23:24;1.40;99.90
34099;DHT22;20374;49.474;10.944;2023-02-14T05:25:51;1.40;99.90
34099;DHT22;20374;49.474;10.944;2023-02-14T05:28:18;1.40;99.90
34099;DHT22;20374;49.474;10.944;2023-02-14T05:30:45;1.40;99.90
34099;DHT22;20374;49.474;10.944;2023-02-14T05:33:11;1.40;99.90
34099;DHT22;20374;49.474;10.944;2023-02-14T05:35:37;1.40;99.90
34099;DHT22;20374;49.474;10.944;2023-02-14T05:38:03;1.40;99.90
34099;DHT22;20374;49.474;10.944;2023-02-14T05:40:29;1.30;99.90
34099;DHT22;20374;49.474;10.944;2023-02-14T05:42:55;1.30;99.90
34099;DHT22;20374;49.474;10.944;2023-02-14T05:45:22;1.30;99.90
34099;DHT22;20374;49.474;10.944;2023-02-14T05:47:48;1.30;99.90
34099;DHT22;20374;49.474;10.944;2023-02-14T05:50:15;1.30;99.90
34099;DHT22;20374;49.474;10.944;2023-02-14T05:52:41;1.30;99.90
34099;DHT22;20374;49.474;10.944;2023-02-14T05:55:07;1.30;99.90
34099;DHT22;20374;49.474;10.944;2023-02-14T05:57:34;1.20;99.90
34099;DHT22;20374;49.474;10.944;2023-02-14T06:00:00;1.20;99.90
34099;DHT22;20374;49.474;10.944;2023-02-14T06:02:26;1.20;99.90
34099;DHT22;20374;49.474;10.944;2023-02-14T06:04:52;1.20;99.90
34099;DHT22;20374;49.474;10.944;2023-02-14T06:07:18;1.20;99.90
34099;DHT22;20374;49.474;10.944;2023-02-14T06:09:44;1.20;99.90
34099;DHT22;20374;49.474;10.944;2023-02-14T06:12:10;1.20;99.90
34099;DHT22;20374;49.474;10.944;2023-02-14T06:14:36;1.20;99.90
34099;DHT22;20374;49.474;10.944;2023-02-14T06:17:02;1.20;99.90
34099;DHT22;20374;49.474;10.944;2023-02-14T06:19:27;1.10;99.90
34099;DHT22;20374;49.474;10.944;2023-02-14T06:21:53;1.20;99.90
34099;DHT22;20374;49.474;10.944;2023-02-14T06:24:19;1.10;99.90
34099;DHT22;20374;49.474;10.944;2023-02-14T06:26:45;1.20;99.90
34099;DHT22;20374;49.474;10.944;2023-02-14T06:29:11;1.20;99.90
34099;DHT22;20374;49.474;10.944;2023-02-14T06:31:37;1.20;99.90
34099;DHT22;20374;49.474;10.944;2023-02-14T06:34:03;1.20;99.90
34099;DHT22;20374;49.474;10.944;2023-02-14T06:36:28;1.20;99.90
34099;DHT22;20374;49.474;10.944;2023-02-14T06:38:55;1.20;99.90
34099;DHT22;20374;49.474;10.944;2023-02-14T06:41:21;1.10;99.90
34099;DHT22;20374;49.474;10.944;2023-02-14T06:43:47;1.20;99.90
34099;DHT22;20374;49.474;10.944;2023-02-14T06:46:16;1.20;99.90
34099;DHT22;20374;49.474;10.944;2023-02-14T06:48:43;1.20;99.90
34099;DHT22;20374;49.474;10.944;2023-02-14T06:51:09;1.20;99.90
34099;DHT22;20374;49.474;10.944;2023-02-14T06:53:35;1.20;99.90
34099;DHT22;20374;49.474;10.944;2023-02-14T06:56:02;1.20;99.90
34099;DHT22;20374;49.474;10.944;2023-02-14T06:58:28;1.20;99.90
34099;DHT22;20374;49.474;10.944;2023-02-14T07:00:55;1.20;99.90
34099;DHT22;20374;49.474;10.944;2023-02-14T07:03:21;1.20;99.90
34099;DHT22;20374;49.474;10.944;2023-02-14T07:05:47;1.10;99.90
34099;DHT22;20374;49.474;10.944;2023-02-14T07:08:12;1.10;99.90
34099;DHT22;20374;49.474;10.944;2023-02-14T07:10:38;1.10;99.90
34099;DHT22;20374;49.474;10.944;2023-02-14T07:13:05;1.10;99.90
34099;DHT22;20374;49.474;10.944;2023-02-14T07:15:31;1.10;99.90
34099;DHT22;20374;49.474;10.944;2023-02-14T07:17:57;1.10;99.90
34099;DHT22;20374;49.474;10.944;2023-02-14T07:20:23;1.10;99.90
34099;DHT22;20374;49.474;10.944;2023-02-14T07:22:49;1.10;99.90
34099;DHT22;20374;49.474;10.944;2023-02-14T07:25:16;1.10;99.90
34099;DHT22;20374;49.474;10.944;2023-02-14T07:27:42;1.10;99.90
34099;DHT22;20374;49.474;10.944;2023-02-14T07:30:09;1.10;99.90
34099;DHT22;20374;49.474;10.944;2023-02-14T07:32:37;1.10;99.90
34099;DHT22;20374;49.474;10.944;2023-02-14T07:35:03;1.10;99.90
34099;DHT22;20374;49.474;10.944;2023-02-14T07:37:31;1.10;99.90
34099;DHT22;20374;49.474;10.944;2023-02-14T07:39:57;1.10;99.90
34099;DHT22;20374;49.474;10.944;2023-02-14T07:42:23;1.10;99.90
34099;DHT22;20374;49.474;10.944;2023-02-14T07:44:49;1.20;99.90
34099;DHT22;20374;49.474;10.944;2023-02-14T07:47:15;1.10;99.90
34099;DHT22;20374;49.474;10.944;2023-02-14T07:49:41;1.20;99.90
34099;DHT22;20374;49.474;10.944;2023-02-14T07:52:07;1.20;99.90
34099;DHT22;20374;49.474;10.944;2023-02-14T07:54:33;1.20;99.90
34099;DHT22;20374;49.474;10.944;2023-02-14T07:56:59;1.30;99.90
34099;DHT22;20374;49.474;10.944;2023-02-14T07:59:25;1.30;99.90
34099;DHT22;20374;49.474;10.944;2023-02-14T08:01:51;1.30;99.90
34099;DHT22;20374;49.474;10.944;2023-02-14T08:04:17;1.30;99.90
34099;DHT22;20374;49.474;10.944;2023-02-14T08:06:43;1.40;99.90
34099;DHT22;20374;49.474;10.944;2023-02-14T08:09:09;1.40;99.90
34099;DHT22;20374;49.474;10.944;2023-02-14T08:11:36;1.40;99.90
34099;DHT22;20374;49.474;10.944;2023-02-14T08:14:21;1.40;99.90
34099;DHT22;20374;49.474;10.944;2023-02-14T08:16:47;1.40;99.90
34099;DHT22;20374;49.474;10.944;2023-02-14T08:19:13;1.40;99.90
34099;DHT22;20374;49.474;10.944;2023-02-14T08:21:39;1.40;99.90
34099;DHT22;20374;49.474;10.944;2023-02-14T08:24:05;1.40;99.90
34099;DHT22;20374;49.474;10.944;2023-02-14T08:26:31;1.50;99.90
34099;DHT22;20374;49.474;10.944;2023-02-14T08:28:57;1.50;99.90
34099;DHT22;20374;49.474;10.944;2023-02-14T08:31:25;1.50;99.90
34099;DHT22;20374;49.474;10.944;2023-02-14T08:33:52;1.50;99.90
34099;DHT22;20374;49.474;10.944;2023-02-14T08:36:18;1.50;99.90
34099;DHT22;20374;49.474;10.944;2023-02-14T08:38:44;1.60;99.90
34099;DHT22;20374;49.474;10.944;2023-02-14T08:41:16;1.60;99.90
34099;DHT22;20374;49.474;10.944;2023-02-14T08:43:43;1.60;99.90
34099;DHT22;20374;49.474;10.944;2023-02-14T08:46:09;1.60;99.90
34099;DHT22;20374;49.474;10.944;2023-02-14T08:48:37;1.70;99.90
34099;DHT22;20374;49.474;10.944;2023-02-14T08:51:08;1.80;99.90
34099;DHT22;20374;49.474;10.944;2023-02-14T08:53:34;1.90;99.90
34099;DHT22;20374;49.474;10.944;2023-02-14T08:56:18;1.90;99.90
34099;DHT22;20374;49.474;10.944;2023-02-14T08:58:51;1.80;99.90
34099;DHT22;20374;49.474;10.944;2023-02-14T09:01:17;1.80;99.90
34099;DHT22;20374;49.474;10.944;2023-02-14T09:03:43;1.70;99.90
34099;DHT22;20374;49.474;10.944;2023-02-14T09:06:12;1.80;99.90
34099;DHT22;20374;49.474;10.944;2023-02-14T09:08:42;1.80;99.90
34099;DHT22;20374;49.474;10.944;2023-02-14T09:11:13;1.80;99.90
34099;DHT22;20374;49.474;10.944;2023-02-14T09:13:44;1.80;99.90
34099;DHT22;20374;49.474;10.944;2023-02-14T09:16:11;1.80;99.90
34099;DHT22;20374;49.474;10.944;2023-02-14T09:18:37;1.80;99.90
34099;DHT22;20374;49.474;10.944;2023-02-14T09:21:12;1.80;99.90
34099;DHT22;20374;49.474;10.944;2023-02-14T09:23:44;1.90;99.90
34099;DHT22;20374;49.474;10.944;2023-02-14T09:26:12;1.90;99.90
34099;DHT22;20374;49.474;10.944;2023-02-14T09:28:39;2.00;99.90
34099;DHT22;20374;49.474;10.944;2023-02-14T09:31:10;2.00;99.90
34099;DHT22;20374;49.474;10.944;2023-02-14T09:33:36;1.90;99.90
34099;DHT22;20374;49.474;10.944;2023-02-14T09:36:21;2.00;99.90
34099;DHT22;20374;49.474;10.944;2023-02-14T09:39:05;2.00;99.90
34099;DHT22;20374;49.474;10.944;2023-02-14T09:44:39;2.10;99.90
34099;DHT22;20374;49.474;10.944;2023-02-14T09:47:48;2.20;99.90
34099;DHT22;20374;49.474;10.944;2023-02-14T09:50:49;2.20;99.90
34099;DHT22;20374;49.474;10.944;2023-02-14T09:53:34;2.30;99.90
34099;DHT22;20374;49.474;10.944;2023-02-14T09:56:18;2.30;99.90
34099;DHT22;20374;49.474;10.944;2023-02-14T09:58:54;2.30;99.90
34099;DHT22;20374;49.474;10.944;2023-02-14T10:01:32;2.20;99.90
34099;DHT22;20374;49.474;10.944;2023-02-14T10:04:39;2.20;99.90
34099;DHT22;20374;49.474;10.944;2023-02-14T10:09:59;2.30;99.90
34099;DHT22;20374;49.474;10.944;2023-02-14T10:15:44;2.30;99.90
34099;DHT22;20374;49.474;10.944;2023-02-14T10:18:20;2.40;99.90
34099;DHT22;20374;49.474;10.944;2023-02-14T10:20:56;2.40;99.90
34099;DHT22;20374;49.474;10.944;2023-02-14T10:23:39;2.40;99.90
34099;DHT22;20374;49.474;10.944;2023-02-14T10:26:24;2.40;99.90
34099;DHT22;20374;49.474;10.944;2023-02-14T10:28:50;2.40;99.90
34099;DHT22;20374;49.474;10.944;2023-02-14T10:34:41;2.40;99.90
34099;DHT22;20374;49.474;10.944;2023-02-14T10:45:38;2.60;99.90
34099;DHT22;20374;49.474;10.944;2023-02-14T10:50:58;2.60;99.90
34099;DHT22;20374;49.474;10.944;2023-02-14T10:56:07;2.60;99.90
34099;DHT22;20374;49.474;10.944;2023-02-14T10:58:37;2.60;99.90
34099;DHT22;20374;49.474;10.944;2023-02-14T11:01:12;2.60;99.90
34099;DHT22;20374;49.474;10.944;2023-02-14T11:03:41;2.50;99.90
34099;DHT22;20374;49.474;10.944;2023-02-14T11:06:12;2.50;99.90
34099;DHT22;20374;49.474;10.944;2023-02-14T11:08:41;2.40;99.90
34099;DHT22;20374;49.474;10.944;2023-02-14T11:11:12;2.30;99.90
34099;DHT22;20374;49.474;10.944;2023-02-14T11:13:41;2.30;99.90
34099;DHT22;20374;49.474;10.944;2023-02-14T11:16:10;2.40;99.90
34099;DHT22;20374;49.474;10.944;2023-02-14T11:18:38;2.70;99.90
34099;DHT22;20374;49.474;10.944;2023-02-14T11:23:43;2.60;99.90
34099;DHT22;20374;49.474;10.944;2023-02-14T11:26:22;2.70;99.90
34099;DHT22;20374;49.474;10.944;2023-02-14T11:28:53;2.70;99.90
34099;DHT22;20374;49.474;10.944;2023-02-14T11:33:56;2.80;99.90
34099;DHT22;20374;49.474;10.944;2023-02-14T11:36:23;2.80;99.90
34099;DHT22;20374;49.474;10.944;2023-02-14T11:39:01;2.80;99.90
34099;DHT22;20374;49.474;10.944;2023-02-14T11:41:49;2.80;99.90
34099;DHT22;20374;49.474;10.944;2023-02-14T11:44:22;2.90;99.90
34099;DHT22;20374;49.474;10.944;2023-02-14T11:46:49;3.00;99.90
34099;DHT22;20374;49.474;10.944;2023-02-14T11:49:33;3.10;99.90
34099;DHT22;20374;49.474;10.944;2023-02-14T11:52:10;3.10;99.90
34099;DHT22;20374;49.474;10.944;2023-02-14T11:54:40;3.10;99.90
34099;DHT22;20374;49.474;10.944;2023-02-14T11:59:47;3.10;99.90
34099;DHT22;20374;49.474;10.944;2023-02-14T12:04:48;3.30;99.90
34099;DHT22;20374;49.474;10.944;2023-02-14T12:07:23;3.40;99.90
34099;DHT22;20374;49.474;10.944;2023-02-14T12:12:31;3.40;99.90
34099;DHT22;20374;49.474;10.944;2023-02-14T12:15:33;3.50;99.90
34099;DHT22;20374;49.474;10.944;2023-02-14T12:21:17;3.60;99.90
34099;DHT22;20374;49.474;10.944;2023-02-14T12:29:40;3.80;99.90
34099;DHT22;20374;49.474;10.944;2023-02-14T12:32:34;4.00;99.90
34099;DHT22;20374;49.474;10.944;2023-02-14T12:35:05;4.10;99.90
34099;DHT22;20374;49.474;10.944;2023-02-14T13:00:42;4.10;99.90
34099;DHT22;20374;49.474;10.944;2023-02-14T13:06:03;4.10;99.90
34099;DHT22;20374;49.474;10.944;2023-02-14T13:19:43;4.70;99.90
34099;DHT22;20374;49.474;10.944;2023-02-14T13:22:14;4.70;99.90
34099;DHT22;20374;49.474;10.944;2023-02-14T13:24:52;4.60;99.90
34099;DHT22;20374;49.474;10.944;2023-02-14T13:27:30;4.60;99.90
34099;DHT22;20374;49.474;10.944;2023-02-14T13:30:22;4.60;99.90
34099;DHT22;20374;49.474;10.944;2023-02-14T13:32:49;4.60;99.90
34099;DHT22;20374;49.474;10.944;2023-02-14T13:35:18;4.60;99.90
34099;DHT22;20374;49.474;10.944;2023-02-14T13:37:53;4.60;99.90
34099;DHT22;20374;49.474;10.944;2023-02-14T13:40:21;4.70;99.90
34099;DHT22;20374;49.474;10.944;2023-02-14T13:42:49;4.80;99.90
34099;DHT22;20374;49.474;10.944;2023-02-14T13:48:15;4.80;99.90
34099;DHT22;20374;49.474;10.944;2023-02-14T13:50:55;4.80;99.90
34099;DHT22;20374;49.474;10.944;2023-02-14T14:01:32;4.70;99.90
34099;DHT22;20374;49.474;10.944;2023-02-14T14:15:13;4.80;99.90
34099;DHT22;20374;49.474;10.944;2023-02-14T14:20:51;5.00;99.90
34099;DHT22;20374;49.474;10.944;2023-02-14T14:23:32;5.00;99.90
34099;DHT22;20374;49.474;10.944;2023-02-14T14:25:59;5.00;99.90
34099;DHT22;20374;49.474;10.944;2023-02-14T14:28:27;5.10;99.90
34099;DHT22;20374;49.474;10.944;2023-02-14T14:30:55;4.90;99.90
34099;DHT22;20374;49.474;10.944;2023-02-14T14:33:33;4.80;99.90
34099;DHT22;20374;49.474;10.944;2023-02-14T14:36:04;4.70;99.90
34099;DHT22;20374;49.474;10.944;2023-02-14T14:38:32;4.80;99.90
34099;DHT22;20374;49.474;10.944;2023-02-14T14:40:59;4.70;99.90
34099;DHT22;20374;49.474;10.944;2023-02-14T14:43:32;4.70;99.90
34099;DHT22;20374;49.474;10.944;2023-02-14T14:45:59;4.70;99.90
34099;DHT22;20374;49.474;10.944;2023-02-14T14:48:43;4.70;99.90
34099;DHT22;20374;49.474;10.944;2023-02-14T14:51:31;4.70;99.90
34099;DHT22;20374;49.474;10.944;2023-02-14T14:54:07;4.70;99.90
34099;DHT22;20374;49.474;10.944;2023-02-14T14:56:49;4.70;99.90
34099;DHT22;20374;49.474;10.944;2023-02-14T15:01:50;4.60;99.90
34099;DHT22;20374;49.474;10.944;2023-02-14T15:04:25;4.70;99.90
34099;DHT22;20374;49.474;10.944;2023-02-14T15:06:51;4.90;99.90
34099;DHT22;20374;49.474;10.944;2023-02-14T15:09:30;4.90;99.90
34099;DHT22;20374;49.474;10.944;2023-02-14T15:11:58;4.80;99.90
34099;DHT22;20374;49.474;10.944;2023-02-14T15:14:47;4.70;99.90
34099;DHT22;20374;49.474;10.944;2023-02-14T15:17:24;4.60;99.90
34099;DHT22;20374;49.474;10.944;2023-02-14T15:20:09;4.80;99.90
34099;DHT22;20374;49.474;10.944;2023-02-14T15:22:47;5.30;99.90
34099;DHT22;20374;49.474;10.944;2023-02-14T15:25:30;5.90;99.90
34099;DHT22;20374;49.474;10.944;2023-02-14T15:27:56;6.00;99.90
34099;DHT22;20374;49.474;10.944;2023-02-14T15:30:29;6.10;99.90
34099;DHT22;20374;49.474;10.944;2023-02-14T15:33:00;6.00;99.90
34099;DHT22;20374;49.474;10.944;2023-02-14T15:35:32;6.00;99.90
34099;DHT22;20374;49.474;10.944;2023-02-14T15:38:00;6.10;99.90
34099;DHT22;20374;49.474;10.944;2023-02-14T15:40:29;6.10;99.90
34099;DHT22;20374;49.474;10.944;2023-02-14T15:43:11;5.90;99.90
34099;DHT22;20374;49.474;10.944;2023-02-14T15:45:38;5.80;99.90
34099;DHT22;20374;49.474;10.944;2023-02-14T15:48:13;5.60;99.90
34099;DHT22;20374;49.474;10.944;2023-02-14T15:50:46;5.30;99.90
34099;DHT22;20374;49.474;10.944;2023-02-14T15:55:45;4.80;99.90
34099;DHT22;20374;49.474;10.944;2023-02-14T15:58:21;4.60;99.90
34099;DHT22;20374;49.474;10.944;2023-02-14T16:00:49;4.40;99.90
34099;DHT22;20374;49.474;10.944;2023-02-14T16:03:21;4.30;99.90
34099;DHT22;20374;49.474;10.944;2023-02-14T16:05:49;4.10;99.90
34099;DHT22;20374;49.474;10.944;2023-02-14T16:08:37;3.90;99.90
34099;DHT22;20374;49.474;10.944;2023-02-14T16:11:24;3.70;99.90
34099;DHT22;20374;49.474;10.944;2023-02-14T16:13:51;3.60;99.90
34099;DHT22;20374;49.474;10.944;2023-02-14T16:16:17;3.40;99.90
34099;DHT22;20374;49.474;10.944;2023-02-14T16:18:47;3.30;99.90
34099;DHT22;20374;49.474;10.944;2023-02-14T16:21:19;3.20;99.90
34099;DHT22;20374;49.474;10.944;2023-02-14T16:26:36;3.00;99.90
34099;DHT22;20374;49.474;10.944;2023-02-14T16:29:08;2.80;99.90
34099;DHT22;20374;49.474;10.944;2023-02-14T16:31:36;2.70;99.90
34099;DHT22;20374;49.474;10.944;2023-02-14T16:34:03;2.60;99.90
34099;DHT22;20374;49.474;10.944;2023-02-14T16:36:30;2.50;99.90
34099;DHT22;20374;49.474;10.944;2023-02-14T16:39:00;2.30;99.90
34099;DHT22;20374;49.474;10.944;2023-02-14T16:41:27;2.20;99.90
34099;DHT22;20374;49.474;10.944;2023-02-14T16:43:55;2.00;99.90
34099;DHT22;20374;49.474;10.944;2023-02-14T16:46:24;1.90;99.90
34099;DHT22;20374;49.474;10.944;2023-02-14T16:48:50;1.90;99.90
34099;DHT22;20374;49.474;10.944;2023-02-14T16:51:37;1.80;99.90
34099;DHT22;20374;49.474;10.944;2023-02-14T16:54:11;1.80;99.90
34099;DHT22;20374;49.474;10.944;2023-02-14T16:56:51;1.80;99.90
34099;DHT22;20374;49.474;10.944;2023-02-14T16:59:18;1.80;99.90
34099;DHT22;20374;49.474;10.944;2023-02-14T17:01:43;1.70;99.90
34099;DHT22;20374;49.474;10.944;2023-02-14T17:04:09;1.70;99.90
34099;DHT22;20374;49.474;10.944;2023-02-14T17:06:37;1.60;99.90
34099;DHT22;20374;49.474;10.944;2023-02-14T17:09:07;1.60;99.90
34099;DHT22;20374;49.474;10.944;2023-02-14T17:11:40;1.50;99.90
34099;DHT22;20374;49.474;10.944;2023-02-14T17:14:10;1.40;99.90
34099;DHT22;20374;49.474;10.944;2023-02-14T17:16:37;1.20;99.90
34099;DHT22;20374;49.474;10.944;2023-02-14T17:19:03;1.00;99.90
34099;DHT22;20374;49.474;10.944;2023-02-14T17:21:30;0.90;99.90
34099;DHT22;20374;49.474;10.944;2023-02-14T17:23:56;0.80;99.90
34099;DHT22;20374;49.474;10.944;2023-02-14T17:26:22;0.70;99.90
34099;DHT22;20374;49.474;10.944;2023-02-14T17:28:48;0.60;99.90
34099;DHT22;20374;49.474;10.944;2023-02-14T17:31:14;0.50;99.90
34099;DHT22;20374;49.474;10.944;2023-02-14T17:33:40;0.50;99.90
34099;DHT22;20374;49.474;10.944;2023-02-14T17:36:11;0.40;99.90
34099;DHT22;20374;49.474;10.944;2023-02-14T17:38:38;0.40;99.90
34099;DHT22;20374;49.474;10.944;2023-02-14T17:41:22;0.40;99.90
34099;DHT22;20374;49.474;10.944;2023-02-14T17:43:49;0.30;99.90
34099;DHT22;20374;49.474;10.944;2023-02-14T17:46:15;0.30;99.90
34099;DHT22;20374;49.474;10.944;2023-02-14T17:48:44;0.30;99.90
34099;DHT22;20374;49.474;10.944;2023-02-14T17:51:11;0.20;99.90
34099;DHT22;20374;49.474;10.944;2023-02-14T17:53:37;0.20;99.90
34099;DHT22;20374;49.474;10.944;2023-02-14T17:56:09;0.10;99.90
34099;DHT22;20374;49.474;10.944;2023-02-14T17:58:36;0.10;99.90
34099;DHT22;20374;49.474;10.944;2023-02-14T18:01:04;0.00;99.90
34099;DHT22;20374;49.474;10.944;2023-02-14T18:03:31;-0.10;99.90
34099;DHT22;20374;49.474;10.944;2023-02-14T18:05:58;-0.10;99.90
34099;DHT22;20374;49.474;10.944;2023-02-14T18:08:32;-0.20;99.90
34099;DHT22;20374;49.474;10.944;2023-02-14T18:10:58;-0.20;99.90
34099;DHT22;20374;49.474;10.944;2023-02-14T18:13:24;-0.20;99.90
34099;DHT22;20374;49.474;10.944;2023-02-14T18:15:51;-0.20;99.90
34099;DHT22;20374;49.474;10.944;2023-02-14T18:18:18;-0.30;99.90
34099;DHT22;20374;49.474;10.944;2023-02-14T18:20:52;-0.30;99.90
34099;DHT22;20374;49.474;10.944;2023-02-14T18:23:18;-0.30;99.90
34099;DHT22;20374;49.474;10.944;2023-02-14T18:25:53;-0.30;99.90
34099;DHT22;20374;49.474;10.944;2023-02-14T18:28:19;-0.30;99.90
34099;DHT22;20374;49.474;10.944;2023-02-14T18:30:45;-0.30;99.90
34099;DHT22;20374;49.474;10.944;2023-02-14T18:33:12;-0.40;99.90
34099;DHT22;20374;49.474;10.944;2023-02-14T18:35:38;-0.40;99.90
34099;DHT22;20374;49.474;10.944;2023-02-14T18:38:05;-0.50;99.90
34099;DHT22;20374;49.474;10.944;2023-02-14T18:40:31;-0.50;99.90
34099;DHT22;20374;49.474;10.944;2023-02-14T18:42:57;-0.60;99.90
34099;DHT22;20374;49.474;10.944;2023-02-14T18:45:23;-0.50;99.90
34099;DHT22;20374;49.474;10.944;2023-02-14T18:47:49;-0.50;99.90